createdAt,value
2022-09-05T00:02:07.054Z,6.82
2022-09-05T00:07:59.621Z,8.25
2022-09-05T00:13:07.564Z,9.48
2022-09-05T00:23:29.115Z,8.45
2022-09-05T00:24:27.281Z,10.52
2022-09-05T00:29:07.391Z,7.38
2022-09-05T00:34:47.834Z,9.18
2022-09-05T00:39:50.656Z,8.15
2022-09-05T00:45:14.427Z,6.93
2022-09-05T00:50:43.373Z,8.88
2022-09-05T00:56:17.893Z,8.38
2022-09-05T01:01:28.268Z,6.90
2022-09-05T01:06:46.306Z,6.93
2022-09-05T01:11:47.814Z,8.77
2022-09-05T01:17:24.691Z,6.50
2022-09-05T01:22:54.655Z,7.63
2022-09-05T01:29:13.106Z,7.95
2022-09-05T01:34:05.135Z,9.13
2022-09-05T01:40:11.075Z,8.40
2022-09-05T01:44:59.362Z,9.48
2022-09-05T01:50:20.242Z,9.20
2022-09-05T01:56:01.939Z,9.80
2022-09-05T02:01:33.207Z,8.02
2022-09-05T02:06:54.786Z,7.68
2022-09-05T02:12:20.249Z,6.38
2022-09-05T02:17:51.102Z,10.38
2022-09-05T02:23:24.626Z,8.55
2022-09-05T02:28:38.497Z,8.85
2022-09-05T02:33:47.633Z,9.50
2022-09-05T02:42:51.195Z,8.60
2022-09-05T02:45:15.332Z,8.60
2022-09-05T02:54:12.846Z,8.60
2022-09-05T02:58:05.702Z,10.00
2022-09-05T03:01:55.778Z,9.10
2022-09-05T03:12:31.339Z,8.52
2022-09-05T03:18:20.227Z,9.80
2022-09-05T03:23:33.120Z,11.20
2022-09-05T03:29:12.012Z,8.80
2022-09-05T03:39:18.140Z,9.15
2022-09-05T03:44:31.580Z,12.93
2022-09-05T03:57:06.951Z,9.25
2022-09-05T03:57:16.806Z,7.90
2022-09-05T04:02:59.987Z,9.35
2022-09-05T04:08:31.225Z,9.32
2022-09-05T04:12:52.264Z,10.13
2022-09-05T04:18:03.872Z,11.75
2022-09-05T04:23:30.658Z,10.65
2022-09-05T04:28:44.560Z,11.18
2022-09-05T04:34:10.472Z,7.55
2022-09-05T04:39:17.934Z,10.25
2022-09-05T04:44:27.568Z,11.65
2022-09-05T04:49:34.279Z,10.43
2022-09-05T04:55:10.900Z,10.93
2022-09-05T05:06:04.495Z,10.18
2022-09-05T05:06:17.755Z,10.10
2022-09-05T05:18:02.674Z,9.90
2022-09-05T05:18:07.470Z,12.48
2022-09-05T05:22:18.135Z,12.35
2022-09-05T05:27:26.012Z,10.98
2022-09-05T05:32:46.030Z,9.40
2022-09-05T05:37:55.629Z,10.98
2022-09-05T05:48:18.465Z,10.33
2022-09-05T05:53:51.666Z,11.05
2022-09-05T05:59:11.237Z,11.55
2022-09-05T06:13:00.890Z,9.18
2022-09-05T06:15:26.698Z,13.50
2022-09-05T06:22:06.749Z,8.57
2022-09-05T06:26:14.431Z,11.73
2022-09-05T06:31:55.393Z,9.88
2022-09-05T06:37:31.643Z,9.80
2022-09-05T06:42:57.858Z,10.65
2022-09-05T06:48:44.790Z,12.52
2022-09-05T06:54:32.535Z,11.00
2022-09-05T06:59:55.528Z,9.13
2022-09-05T07:05:31.421Z,9.20
2022-09-05T07:10:39.845Z,9.18
2022-09-05T07:16:26.490Z,7.45
2022-09-05T07:22:00.573Z,7.40
2022-09-05T07:27:08.989Z,8.23
2022-09-05T07:32:19.260Z,8.25
2022-09-05T07:37:32.613Z,7.88
2022-09-05T07:43:09.917Z,6.75
2022-09-05T07:48:22.267Z,12.75
2022-09-05T07:56:51.098Z,8.93
2022-09-05T07:58:52.755Z,8.77
2022-09-05T08:03:56.047Z,9.50
2022-09-05T08:09:21.353Z,10.32
2022-09-05T08:14:55.024Z,8.57
2022-09-05T08:20:09.443Z,6.88
2022-09-05T08:25:19.470Z,6.80
2022-09-05T08:30:26.356Z,7.43
2022-09-05T08:35:38.237Z,6.53
2022-09-05T08:41:06.028Z,7.15
2022-09-05T08:46:40.814Z,6.90
2022-09-05T08:51:55.266Z,6.35
2022-09-05T08:57:28.233Z,8.57
2022-09-05T09:02:47.283Z,6.78
2022-09-05T09:08:08.167Z,7.57
2022-09-05T09:13:18.267Z,11.18
2022-09-05T09:18:21.509Z,6.32
2022-09-05T09:23:55.295Z,7.22
2022-09-05T09:29:04.186Z,5.75
2022-09-05T09:34:25.945Z,8.15
2022-09-05T09:39:38.268Z,5.45
2022-09-05T09:45:01.606Z,4.63
2022-09-05T09:50:45.070Z,5.22
2022-09-05T09:56:37.859Z,5.25
2022-09-05T10:05:01.318Z,7.97
2022-09-05T10:10:52.608Z,4.38
2022-09-05T10:13:26.906Z,5.05
2022-09-05T10:18:47.597Z,5.22
2022-09-05T10:23:57.943Z,5.32
2022-09-05T10:29:28.802Z,4.70
2022-09-05T10:35:12.789Z,4.88
2022-09-05T10:40:20.963Z,5.20
2022-09-05T10:45:37.939Z,4.30
2022-09-05T10:50:44.572Z,4.10
2022-09-05T10:55:52.398Z,5.45
2022-09-05T11:02:29.119Z,3.85
2022-09-05T11:06:46.669Z,5.55
2022-09-05T11:12:03.624Z,5.90
2022-09-05T11:17:12.633Z,4.03
2022-09-05T11:22:23.476Z,5.80
2022-09-05T11:27:40.231Z,4.13
2022-09-05T11:38:13.200Z,5.20
2022-09-05T11:40:07.048Z,5.63
2022-09-05T11:44:25.815Z,4.38
2022-09-05T11:49:54.495Z,8.57
2022-09-05T11:55:34.655Z,5.73
2022-09-05T12:00:52.204Z,3.85
2022-09-05T12:06:29.090Z,5.57
2022-09-05T12:12:06.424Z,3.83
2022-09-05T12:18:18.898Z,6.70
2022-09-05T12:23:47.553Z,5.50
2022-09-05T12:29:33.432Z,5.40
2022-09-05T12:36:07.009Z,6.78
2022-09-05T12:41:35.011Z,5.82
2022-09-05T12:51:08.853Z,6.43
2022-09-05T13:00:03.955Z,6.72
2022-09-05T13:03:06.706Z,4.88
2022-09-05T13:07:38.968Z,4.07
2022-09-05T13:14:49.646Z,4.45
2022-09-05T13:18:16.395Z,6.07
2022-09-05T13:23:24.105Z,5.45
2022-09-05T13:28:43.162Z,5.13
2022-09-05T13:37:59.533Z,6.60
2022-09-05T13:39:18.170Z,5.45
2022-09-05T13:44:27.413Z,4.70
2022-09-05T13:49:40.670Z,7.07
2022-09-05T13:55:10.651Z,7.50
2022-09-05T14:00:28.176Z,4.53
2022-09-05T14:05:51.947Z,5.00
2022-09-05T14:11:03.309Z,3.88
2022-09-05T14:16:12.472Z,5.22
2022-09-05T14:21:17.319Z,7.70
2022-09-05T14:26:42.397Z,3.83
2022-09-05T14:37:37.007Z,4.63
2022-09-05T14:38:00.925Z,7.88
2022-09-05T14:42:54.916Z,4.43
2022-09-05T14:48:13.340Z,6.88
2022-09-05T15:02:53.354Z,4.00
2022-09-05T15:12:14.943Z,5.80
2022-09-05T15:15:14.026Z,6.90
2022-09-05T15:20:37.115Z,6.07
2022-09-05T15:25:45.832Z,4.72
2022-09-05T15:31:05.094Z,8.45
2022-09-05T15:36:13.406Z,6.07
2022-09-05T15:41:22.720Z,7.07
2022-09-05T15:46:32.838Z,10.55
2022-09-05T15:51:45.251Z,7.07
2022-09-05T15:56:51.807Z,5.20
2022-09-05T16:01:58.918Z,6.47
2022-09-05T16:10:38.970Z,5.50
2022-09-05T16:12:46.385Z,7.88
2022-09-05T16:23:15.645Z,3.97
2022-09-05T16:23:41.500Z,4.97
2022-09-05T16:28:47.950Z,4.38
2022-09-05T16:33:49.726Z,7.03
2022-09-05T16:39:14.819Z,5.80
2022-09-05T16:44:22.892Z,4.32
2022-09-05T16:49:41.758Z,4.57
2022-09-05T16:54:56.444Z,4.65
2022-09-05T16:59:58.844Z,6.50
2022-09-05T17:05:06.685Z,4.40
2022-09-05T17:10:11.772Z,4.40
2022-09-05T17:15:26.251Z,7.95
2022-09-05T17:20:30.631Z,7.85
2022-09-05T17:29:30.887Z,5.43
2022-09-05T17:36:47.425Z,5.72
2022-09-05T17:42:18.294Z,20.25
2022-09-05T17:47:36.220Z,18.08
2022-09-05T17:53:26.779Z,13.48
2022-09-05T17:58:49.047Z,7.60
2022-09-05T18:03:52.019Z,10.45
2022-09-05T18:08:53.698Z,5.82
2022-09-05T18:14:01.264Z,5.88
2022-09-05T18:19:32.417Z,5.72
2022-09-05T18:24:45.140Z,7.25
2022-09-05T18:30:09.886Z,7.32
2022-09-05T18:35:27.916Z,8.68
2022-09-05T18:41:06.308Z,11.27
2022-09-05T18:46:22.943Z,10.88
2022-09-05T18:51:35.488Z,9.18
2022-09-05T18:57:03.027Z,8.88
2022-09-05T19:02:02.754Z,10.10
2022-09-05T19:07:30.142Z,10.25
2022-09-05T19:12:42.776Z,9.98
2022-09-05T19:18:26.271Z,9.75
2022-09-05T19:23:28.182Z,8.15
2022-09-05T19:36:54.259Z,10.15
2022-09-05T19:36:58.702Z,7.78
2022-09-05T19:41:39.929Z,9.23
2022-09-05T19:47:51.106Z,10.95
2022-09-05T19:50:29.707Z,8.55
2022-09-05T19:55:36.016Z,8.82
2022-09-05T20:00:40.543Z,9.20
2022-09-05T20:05:42.294Z,8.95
2022-09-05T20:10:43.886Z,8.88
2022-09-05T20:15:45.521Z,10.60
2022-09-05T20:20:56.905Z,7.70
2022-09-05T20:25:59.459Z,8.20
2022-09-05T20:31:08.484Z,8.95
2022-09-05T20:40:48.537Z,9.07
2022-09-05T20:43:20.080Z,6.93
2022-09-05T20:53:05.590Z,7.22
2022-09-05T20:54:26.822Z,7.37
2022-09-05T20:58:31.291Z,9.18
2022-09-05T21:03:39.752Z,7.07
2022-09-05T21:08:41.383Z,6.43
2022-09-05T21:13:52.415Z,5.47
2022-09-05T21:18:54.919Z,5.18
2022-09-05T21:23:59.563Z,6.30
2022-09-05T21:29:16.613Z,7.07
2022-09-05T21:34:25.609Z,5.88
2022-09-05T21:39:30.759Z,6.63
2022-09-05T21:47:39.037Z,5.85
2022-09-05T21:49:55.436Z,5.45
2022-09-05T21:59:21.314Z,6.70
2022-09-05T22:00:20.810Z,4.47
2022-09-05T22:05:25.346Z,5.20
2022-09-05T22:10:41.609Z,5.30
2022-09-05T22:15:49.543Z,4.63
2022-09-05T22:21:31.834Z,5.15
2022-09-05T22:26:16.829Z,6.35
2022-09-05T22:31:19.875Z,5.57
2022-09-05T22:36:21.772Z,5.93
2022-09-05T22:41:30.271Z,4.38
2022-09-05T22:46:32.881Z,4.88
2022-09-05T22:51:34.501Z,5.90
2022-09-05T22:56:38.093Z,3.95
2022-09-05T23:01:39.713Z,5.00
2022-09-05T23:06:41.358Z,4.43
2022-09-05T23:11:42.938Z,7.22
2022-09-05T23:16:44.534Z,6.55
2022-09-05T23:21:46.110Z,4.85
2022-09-05T23:26:47.696Z,6.65
2022-09-05T23:31:49.340Z,4.10
2022-09-05T23:36:51.002Z,5.45
2022-09-05T23:41:52.575Z,3.70
2022-09-05T23:46:54.156Z,4.00
2022-09-05T23:51:55.742Z,4.88
2022-09-05T23:56:57.439Z,5.28
